Latest Weather Observations for East Sale

IDV60801

Issued at 6:02 pm EDT Thursday 23 February 2017 (issued every 30 minutes, with the page automatically refreshed every 10 minutes)

About weather observations | Map of weather stations | Latest weather observations for VIC | Other Formats
Station Details ID: 085072 Name: EAST SALE AIRPORT Lat: -38.12 Lon: 147.13 Height: 4.6 m
Data from the previous 72 hours. | See also: Recent months at East Sale
Date/Time
EDT
Temp
°C
App
Temp
°C
Dew
Point
°C
Rel
Hum
%
Delta-T
°C
Wind Press
QNH
hPa
Press
MSL
hPa
Rain since
9am
mm
Dir  Spd
km/h
Gust
km/h
Spd
kts
Gust
kts
23/05:30pm 23.3 19.5 14.6 58 5.1 ESE 28 35 15 19 1017.5 1017.5 0.0
23/05:00pm 24.4 20.3 14.8 55 5.7 ESE 30 41 16 22 1017.1 1017.1 0.0
23/04:30pm 25.3 21.3 14.1 50 6.6 E 28 37 15 20 1016.9 1016.9 0.0
23/04:00pm 25.4 22.4 13.6 48 6.9 E 22 32 12 17 1016.8 1016.8 0.0
23/03:30pm 25.9 22.1 13.7 47 7.2 E 26 35 14 19 1016.6 1016.6 0.0
23/03:00pm 26.0 23.7 14.1 47 7.1 ENE 19 30 10 16 1016.7 1016.7 0.0
23/02:30pm 25.7 22.5 13.2 46 7.3 ENE 22 28 12 15 1016.6 1016.6 0.0
23/02:00pm 26.7 24.4 13.1 43 8.0 W 17 24 9 13 1016.5 1016.5 0.0
23/01:30pm 26.1 22.8 11.5 40 8.3 W 20 35 11 19 1016.5 1016.5 0.0
23/01:00pm 25.7 22.8 12.9 45 7.4 WSW 20 30 11 16 1016.6 1016.6 0.0
23/12:30pm 24.9 21.2 12.8 47 7.0 WSW 24 32 13 17 1016.7 1016.7 0.0
23/12:00pm 24.4 21.0 12.4 47 6.9 WSW 22 30 12 16 1016.6 1016.6 0.0
23/11:30am 24.0 20.5 12.3 48 6.7 SW 22 32 12 17 1016.4 1016.4 0.0
23/11:00am 23.7 19.6 12.7 50 6.3 W 26 39 14 21 1016.5 1016.5 0.0
23/10:30am 22.7 18.0 12.0 50 6.0 W 28 41 15 22 1016.5 1016.5 0.0
23/10:00am 22.3 19.7 13.1 56 5.3 W 19 32 10 17 1016.4 1016.4 0.0
23/09:30am 20.6 18.0 12.1 58 4.8 WSW 17 24 9 13 1016.3 1016.3 0.0
23/09:00am 19.7 17.9 12.2 62 4.2 WSW 13 20 7 11 1016.1 1016.1 0.0
23/08:30am 18.5 17.4 13.1 71 3.0 W 11 13 6 7 1015.7 1015.7 0.0
23/08:08am 16.9 16.9 13.6 81 1.9 SW 6 7 3 4 1015.4 1015.4 0.0
23/08:00am 16.4 16.4 13.5 83 1.6 W 6 7 3 4 1015.2 1015.2 0.0
23/07:30am 14.3 14.3 11.3 82 1.6 N 2 7 1 4 1014.7 1014.7 0.0
23/07:00am 14.9 13.0 10.5 75 2.3 NNW 11 13 6 7 1014.2 1014.2 0.0
23/06:30am 14.3 12.1 10.7 79 1.9 NNW 13 15 7 8 1013.7 1013.7 0.0
23/06:00am 15.6 13.7 11.8 78 2.1 NNW 13 15 7 8 1013.3 1013.3 0.0
23/05:30am 14.9 13.4 10.7 76 2.2 NW 9 11 5 6 1013.0 1013.0 0.0
23/05:00am 15.8 15.0 11.2 74 2.5 NNW 6 11 3 6 1012.8 1012.8 0.0
23/04:30am 17.1 15.6 11.8 71 2.9 W 11 15 6 8 1012.3 1012.3 0.0
23/04:00am 17.7 15.9 12.2 70 3.0 W 13 17 7 9 1012.1 1012.1 0.0
23/03:30am 17.9 15.1 12.6 71 3.0 WSW 19 28 10 15 1011.5 1011.5 0.0
23/03:00am 18.1 13.2 12.5 70 3.1 W 30 39 16 21 1010.7 1010.7 0.0
23/02:30am 17.8 14.0 13.5 76 2.4 W 26 37 14 20 1010.4 1010.4 0.0
23/02:15am 17.4 15.3 14.7 84 1.6 NNE 19 43 10 23 1010.4 1010.4 0.0
23/02:00am 16.0 15.7 14.4 90 0.9 ENE 9 15 5 8 1009.2 1009.2 0.0
23/01:30am 15.9 15.7 13.7 87 1.2 SSE 7 9 4 5 1009.8 1009.8 0.0
23/01:00am 17.2 17.6 14.8 86 1.4 SE 6 7 3 4 1009.9 1009.9 0.0
23/12:30am 17.2 17.4 14.7 85 1.4 S 7 9 4 5 1010.2 1010.2 0.0
23/12:00am 17.4 17.9 14.9 85 1.4 ESE 6 9 3 5 1010.3 1010.3 0.0
 
Date/Time
EDT
Temp
°C
App
Temp
°C
Dew
Point
°C
Rel
Hum
%
Delta-T
°C
Wind Press
QNH
hPa
Press
MSL
hPa
Rain since
9am
mm
Dir  Spd
km/h
Gust
km/h
Spd
kts
Gust
kts
22/11:30pm 17.5 16.6 14.8 84 1.6 ENE 13 15 7 8 1010.5 1010.5 0.0
22/11:00pm 18.5 17.4 15.4 82 1.8 E 15 17 8 9 1010.8 1010.8 0.0
22/10:30pm 19.2 19.4 16.8 86 1.4 SE 11 15 6 8 1011.1 1011.1 0.0
22/10:00pm 19.5 18.8 16.3 82 1.9 E 15 17 8 9 1011.0 1011.0 0.0
22/09:30pm 19.3 18.6 16.5 84 1.7 E 15 19 8 10 1011.2 1011.2 0.0
22/09:00pm 20.2 19.0 16.0 77 2.5 ESE 17 20 9 11 1011.3 1011.3 0.0
22/08:30pm 19.1 18.7 15.2 78 2.3 SE 11 13 6 7 1011.7 1011.7 0.0
22/08:00pm 21.0 19.5 14.2 65 4.0 ENE 15 19 8 10 1011.8 1011.8 0.0
22/07:30pm 22.0 19.4 13.9 60 4.7 ENE 20 26 11 14 1011.7 1011.7 0.0
22/07:00pm 22.7 17.4 13.2 55 5.5 ENE 33 43 18 23 1011.2 1011.2 0.0
22/06:30pm 24.2 19.8 14.0 53 6.0 ENE 30 35 16 19 1011.2 1011.2 0.0
22/06:00pm 25.8 21.6 12.3 43 7.8 ENE 26 32 14 17 1011.6 1011.6 0.0
22/05:30pm 26.2 21.4 11.5 40 8.4 E 28 33 15 18 1011.8 1011.8 0.0
22/05:00pm 25.6 21.2 12.8 45 7.4 E 28 35 15 19 1011.8 1011.8 0.0
22/04:30pm 27.4 22.3 11.8 38 9.0 E 30 37 16 20 1011.9 1011.9 0.0
22/04:00pm 28.9 23.9 8.0 27 11.4 E 24 32 13 17 1012.1 1012.1 0.0
22/03:30pm 29.1 25.5 9.8 30 10.8 ESE 19 26 10 14 1012.6 1012.6 0.0
22/03:00pm 28.5 24.5 8.2 28 11.1 ESE 19 26 10 14 1012.9 1012.9 0.0
22/02:30pm 27.2 24.1 10.4 35 9.4 SE 17 22 9 12 1013.3 1013.3 0.0
22/02:00pm 26.4 23.2 10.1 36 9.1 E 17 20 9 11 1013.9 1013.9 0.0
22/01:30pm 25.6 24.4 12.8 45 7.4 E 11 17 6 9 1014.4 1014.4 0.0
22/01:00pm 24.4 23.5 13.6 51 6.3 E 11 17 6 9 1014.8 1014.8 0.0
22/12:30pm 24.6 23.8 12.9 48 6.8 ENE 9 15 5 8 1015.0 1015.0 0.0
22/12:00pm 24.1 23.9 13.6 52 6.1 ENE 7 11 4 6 1015.5 1015.5 0.0
22/11:30am 23.1 22.5 12.4 51 6.1 NNE 7 11 4 6 1016.2 1016.2 0.0
22/11:00am 21.4 21.0 13.1 59 4.7 NNE 7 11 4 6 1016.6 1016.6 0.0
22/10:30am 18.6 18.2 12.4 67 3.5 NNE 6 11 3 6 1017.1 1017.1 0.0
22/10:00am 17.7 17.4 13.2 75 2.5 NNW 7 9 4 5 1017.5 1017.5 0.0
22/09:30am 15.7 15.4 13.4 86 1.3 NNW 7 11 4 6 1017.8 1017.8 0.0
22/09:00am 14.1 13.7 13.1 94 0.5 NW 7 9 4 5 1017.8 1017.8 0.0
22/08:30am 12.5 11.0 11.9 96 0.3 NW 11 13 6 7 1018.0 1018.0 0.0
22/08:00am 11.0 9.5 10.5 97 0.3 NW 9 13 5 7 1017.8 1017.8 0.0
22/07:30am 9.8 8.3 9.3 97 0.2 NW 7 9 4 5 1017.7 1017.7 0.0
22/07:00am 9.9 8.5 9.4 97 0.2 NW 7 9 4 5 1017.6 1017.6 0.0
22/06:30am 10.1 8.0 9.6 97 0.2 WNW 11 11 6 6 1017.8 1017.8 0.0
22/06:00am 9.5 7.9 8.9 96 0.3 WNW 7 9 4 5 1017.5 1017.5 0.0
22/05:30am 9.8 8.5 9.2 96 0.3 W 6 7 3 4 1017.6 1017.6 0.0
22/05:00am 10.3 8.6 9.7 96 0.3 WNW 9 11 5 6 1017.7 1017.7 0.0
22/04:30am 10.2 8.4 9.6 96 0.3 WNW 9 13 5 7 1017.9 1017.9 0.0
22/04:00am 10.5 9.3 9.7 95 0.4 NNW 6 7 3 4 1018.1 1018.1 0.0
22/03:30am 10.8 9.7 10.0 95 0.4 NNW 6 6 3 3 1018.5 1018.5 0.0
22/03:00am 11.0 11.1 10.1 94 0.5 CALM 0 0 0 0 1018.9 1018.9 0.0
22/02:30am 11.2 11.3 10.1 93 0.6 CALM 0 0 0 0 1019.2 1019.2 0.0
22/02:00am 11.7 11.9 10.4 92 0.7 CALM 0 0 0 0 1019.4 1019.4 0.0
22/01:30am 12.3 12.2 10.7 90 0.8 NNE 2 6 1 3 1019.9 1019.9 0.0
22/01:00am 13.2 12.3 11.4 89 1.0 NNE 7 9 4 5 1020.3 1020.3 0.0
22/12:30am 13.2 12.5 11.4 89 1.0 NE 6 6 3 3 1020.6 1020.6 0.0
22/12:00am 12.8 11.8 10.9 88 1.0 NE 7 9 4 5 1021.0 1021.0 0.0
 
Date/Time
EDT
Temp
°C
App
Temp
°C
Dew
Point
°C
Rel
Hum
%
Delta-T
°C
Wind Press
QNH
hPa
Press
MSL
hPa
Rain since
9am
mm
Dir  Spd
km/h
Gust
km/h
Spd
kts
Gust
kts
21/11:30pm 13.4 11.3 11.3 87 1.1 NE 13 15 7 8 1021.1 1021.1 0.0
21/11:00pm 14.0 13.2 11.7 86 1.2 ENE 7 11 4 6 1021.3 1021.3 0.0
21/10:30pm 14.2 13.0 11.5 84 1.4 ENE 9 11 5 6 1021.3 1021.3 0.0
21/10:00pm 14.5 12.6 11.7 83 1.5 E 13 15 7 8 1021.1 1021.1 0.0
21/09:30pm 14.8 12.9 11.8 82 1.6 E 13 15 7 8 1021.1 1021.1 0.0
21/09:00pm 15.1 12.8 11.7 80 1.8 ESE 15 15 8 8 1020.8 1020.8 0.0
21/08:30pm 15.9 14.0 11.7 76 2.3 ESE 13 15 7 8 1020.6 1020.6 0.0
21/08:00pm 16.9 14.6 11.6 71 2.9 ESE 15 19 8 10 1020.0 1020.0 0.0
21/07:30pm 18.0 15.0 11.8 67 3.4 SE 19 24 10 13 1019.6 1019.6 0.0
21/07:00pm 19.0 15.0 11.8 63 4.0 ESE 24 30 13 16 1019.2 1019.2 0.0
21/06:30pm 20.0 16.3 11.5 58 4.7 ESE 22 28 12 15 1019.0 1019.0 0.0
21/06:00pm 20.6 16.1 11.5 56 5.0 ESE 26 32 14 17 1018.9 1018.9 0.0
21/05:30pm 21.5 17.2 12.1 55 5.3 ESE 26 35 14 19 1018.8 1018.8 0.0
21/05:00pm 21.5 16.9 10.9 51 5.8 ESE 26 35 14 19 1019.0 1019.0 0.0
21/04:30pm 22.1 17.3 11.5 51 5.9 E 28 39 15 21 1019.0 1019.0 0.0
21/04:00pm 22.8 21.7 11.8 50 6.2 WSW 9 17 5 9 1019.1 1019.1 0.0
21/03:30pm 22.8 20.2 9.2 42 7.3 WSW 13 22 7 12 1019.3 1019.3 0.0
21/03:00pm 22.4 19.6 8.5 41 7.3 SW 13 19 7 10 1019.6 1019.6 0.0
21/02:30pm 22.2 19.9 10.4 47 6.5 SSW 13 19 7 10 1020.0 1020.0 0.0
21/02:00pm 22.4 18.8 9.9 45 6.8 WSW 19 32 10 17 1020.5 1020.5 0.0
21/01:30pm 21.7 18.2 10.2 48 6.3 W 19 30 10 16 1020.6 1020.6 0.0
21/01:00pm 20.7 16.9 9.0 47 6.2 W 19 26 10 14 1020.7 1020.7 0.0
21/12:30pm 20.4 16.5 9.6 50 5.8 W 20 30 11 16 1020.8 1020.8 0.0
21/12:00pm 18.9 15.1 9.7 55 4.9 WSW 20 32 11 17 1021.2 1021.2 0.0
21/11:30am 19.1 15.6 10.1 56 4.8 W 19 30 10 16 1021.5 1021.5 0.0
21/11:00am 18.5 15.3 11.3 63 3.9 W 19 28 10 15 1021.6 1021.6 0.0
21/10:30am 17.5 14.6 11.1 66 3.5 W 17 24 9 13 1021.7 1021.7 0.0
21/10:00am 16.7 13.2 10.3 66 3.4 W 19 28 10 15 1021.6 1021.6 0.0
21/09:30am 15.6 12.0 9.9 69 3.0 WNW 19 24 10 13 1021.5 1021.5 0.0
21/09:00am 14.1 11.5 9.5 74 2.3 WNW 13 17 7 9 1021.3 1021.3 4.0
21/08:30am 12.6 10.0 9.2 80 1.7 NW 13 15 7 8 1020.9 1020.9 4.0
21/08:00am 11.1 8.4 9.0 87 1.0 WNW 13 17 7 9 1020.6 1020.6 4.0
21/07:30am 9.6 6.3 8.0 90 0.8 NW 15 17 8 9 1020.0 1020.0 4.0
21/07:00am 9.0 6.0 7.6 91 0.7 NW 13 15 7 8 1019.6 1019.6 4.0
21/06:30am 9.2 6.7 8.0 92 0.6 NW 11 13 6 7 1019.3 1019.3 4.0
21/06:00am 9.4 7.2 7.8 90 0.8 WSW 9 13 5 7 1018.9 1018.9 4.0
21/05:30am 10.0 7.9 8.3 89 0.8 W 9 13 5 7 1018.6 1018.6 4.0
21/05:00am 10.0 7.0 7.9 87 1.0 W 13 15 7 8 1018.4 1018.4 4.0
21/04:30am 10.2 7.7 8.0 86 1.1 W 11 13 6 7 1018.3 1018.3 4.0
21/04:00am 11.6 8.1 8.6 82 1.5 WNW 17 20 9 11 1018.1 1018.1 4.0
21/03:30am 11.9 9.1 8.7 81 1.6 WNW 13 15 7 8 1018.0 1018.0 4.0
21/03:00am 12.0 8.9 8.7 80 1.6 WNW 15 17 8 9 1017.8 1017.8 4.0
21/02:30am 12.6 9.2 9.1 79 1.8 WNW 17 20 9 11 1017.7 1017.7 4.0
21/02:00am 12.8 9.5 9.6 81 1.6 WNW 17 20 9 11 1017.7 1017.7 4.0
21/01:30am 13.0 9.4 9.8 81 1.6 WNW 19 24 10 13 1017.7 1017.7 4.0
21/01:00am 12.5 9.2 9.7 83 1.4 WNW 17 20 9 11 1017.7 1017.7 4.0
21/12:30am 12.6 10.5 9.6 82 1.5 NW 11 13 6 7 1017.6 1017.6 4.0
21/12:00am 12.8 9.9 9.8 82 1.5 WNW 15 19 8 10 1017.5 1017.5 4.0
 
Date/Time
EDT
Temp
°C
App
Temp
°C
Dew
Point
°C
Rel
Hum
%
Delta-T
°C
Wind Press
QNH
hPa
Press
MSL
hPa
Rain since
9am
mm
Dir  Spd
km/h
Gust
km/h
Spd
kts
Gust
kts
20/11:30pm 12.9 9.6 9.7 81 1.6 WNW 17 20 9 11 1017.3 1017.3 4.0
20/11:00pm 13.3 10.8 9.7 79 1.8 WNW 13 15 7 8 1017.4 1017.4 4.0
20/10:30pm 13.4 10.5 9.6 78 1.9 W 15 19 8 10 1017.2 1017.2 4.0
20/10:00pm 13.5 11.1 9.9 79 1.8 W 13 17 7 9 1017.0 1017.0 4.0
20/09:30pm 13.7 10.9 9.9 78 2.0 W 15 19 8 10 1016.5 1016.5 4.0
20/09:00pm 14.3 10.8 10.1 76 2.2 W 19 24 10 13 1015.9 1015.9 4.0
20/08:30pm 14.6 10.8 9.8 73 2.5 W 20 28 11 15 1015.4 1015.4 4.0
20/08:00pm 15.2 9.4 9.6 69 2.9 W 30 43 16 23 1014.8 1014.8 4.0
20/07:53pm 15.2 9.7 9.3 68 3.0 W 28 46 15 25 1014.7 1014.7 4.0
20/07:30pm 15.8 10.3 9.2 65 3.4 W 28 41 15 22 1014.2 1014.2 4.0
20/07:08pm 16.1 10.9 10.4 69 3.0 W 28 48 15 26 1013.9 1013.9 4.0
20/07:00pm 15.9 11.3 10.9 72 2.7 W 26 37 14 20 1013.8 1013.8 4.0
20/06:30pm 15.5 10.2 9.8 69 3.0 W 28 37 15 20 1013.4 1013.4 4.0

Other Formats:

Comma delimited format used in spreadsheet applications
http://www.bom.gov.au/fwo/IDV60801/IDV60801.94907.axf

JavaScript Object Notation format (JSON) in row-major order
http://www.bom.gov.au/fwo/IDV60801/IDV60801.94907.json